createdAt,value
2019-02-25T00:00:48.883Z,2.60
2019-02-25T00:03:18.502Z,2.87
2019-02-25T00:05:48.143Z,3.27
2019-02-25T00:08:17.830Z,3.00
2019-02-25T00:10:47.477Z,3.20
2019-02-25T00:13:17.096Z,3.27
2019-02-25T00:15:46.759Z,2.90
2019-02-25T00:18:16.363Z,2.70
2019-02-25T00:20:46.030Z,2.85
2019-02-25T00:23:15.650Z,2.72
2019-02-25T00:25:45.271Z,2.58
2019-02-25T00:28:14.918Z,2.95
2019-02-25T00:30:44.540Z,3.37
2019-02-25T00:33:14.188Z,3.22
2019-02-25T00:35:43.806Z,3.65
2019-02-25T00:38:13.448Z,2.98
2019-02-25T00:40:43.072Z,3.05
2019-02-25T00:43:12.713Z,3.22
2019-02-25T00:45:42.334Z,3.70
2019-02-25T00:48:11.983Z,3.10
2019-02-25T00:50:41.602Z,2.92
2019-02-25T00:53:11.623Z,2.83
2019-02-25T00:55:41.241Z,2.85
2019-02-25T00:58:10.904Z,3.02
2019-02-25T01:00:40.525Z,3.10
2019-02-25T01:03:10.217Z,3.10
2019-02-25T01:05:39.857Z,3.40
2019-02-25T01:08:09.620Z,3.60
2019-02-25T01:10:39.261Z,3.20
2019-02-25T01:13:09.021Z,3.20
2019-02-25T01:15:38.736Z,3.30
2019-02-25T01:18:08.430Z,3.60
2019-02-25T01:20:38.073Z,3.22
2019-02-25T01:23:07.832Z,3.70
2019-02-25T01:25:37.472Z,3.58
2019-02-25T01:28:07.162Z,3.05
2019-02-25T01:30:36.808Z,3.40
2019-02-25T01:33:06.563Z,2.98
2019-02-25T01:35:36.272Z,3.92
2019-02-25T01:38:05.992Z,3.45
2019-02-25T01:40:35.611Z,3.83
2019-02-25T01:43:05.321Z,3.20
2019-02-25T01:45:34.938Z,3.27
2019-02-25T01:48:04.654Z,3.20
2019-02-25T01:50:34.290Z,3.20
2019-02-25T01:53:03.938Z,3.55
2019-02-25T01:55:33.559Z,3.27
2019-02-25T01:58:03.201Z,3.35
2019-02-25T02:00:32.960Z,3.87
2019-02-25T02:03:02.602Z,3.85
2019-02-25T02:05:32.221Z,4.00
2019-02-25T02:08:01.886Z,3.72
2019-02-25T02:10:31.505Z,4.30
2019-02-25T02:13:01.124Z,3.47
2019-02-25T02:15:31.553Z,3.75
2019-02-25T02:18:01.174Z,3.80
2019-02-25T02:20:30.878Z,3.40
2019-02-25T02:23:00.495Z,3.90
2019-02-25T02:25:30.150Z,3.62
2019-02-25T02:27:59.765Z,3.90
2019-02-25T02:30:29.404Z,3.50
2019-02-25T02:32:59.017Z,4.03
2019-02-25T02:35:28.660Z,3.65
2019-02-25T02:37:58.274Z,3.70
2019-02-25T02:40:27.921Z,3.90
2019-02-25T02:43:01.843Z,3.60
2019-02-25T02:45:45.090Z,3.77
2019-02-25T02:48:25.272Z,3.80
2019-02-25T02:50:54.916Z,4.25
2019-02-25T02:53:24.529Z,4.25
2019-02-25T02:55:54.196Z,3.72
2019-02-25T02:58:23.885Z,3.72
2019-02-25T03:00:53.500Z,3.90
2019-02-25T03:03:23.140Z,3.20
2019-02-25T03:05:52.755Z,4.25
2019-02-25T03:08:22.400Z,3.80
2019-02-25T03:10:52.023Z,3.67
2019-02-25T03:13:21.669Z,3.62
2019-02-25T03:15:51.286Z,4.08
2019-02-25T03:18:20.929Z,3.60
2019-02-25T03:20:50.547Z,3.62
2019-02-25T03:23:20.187Z,3.55
2019-02-25T03:25:49.799Z,3.12
2019-02-25T03:28:19.463Z,4.05
2019-02-25T03:30:49.085Z,3.60
2019-02-25T03:33:18.714Z,3.77
2019-02-25T03:35:48.696Z,3.37
2019-02-25T03:38:18.302Z,3.77
2019-02-25T03:40:47.945Z,3.40
2019-02-25T03:43:17.570Z,4.25
2019-02-25T03:45:47.211Z,4.10
2019-02-25T03:48:16.824Z,4.30
2019-02-25T03:50:46.485Z,3.77
2019-02-25T03:53:16.100Z,3.90
2019-02-25T03:55:45.786Z,3.70
2019-02-25T03:58:15.421Z,3.72
2019-02-25T04:00:45.178Z,3.77
2019-02-25T04:03:14.992Z,3.87
2019-02-25T04:05:44.675Z,3.67
2019-02-25T04:08:14.464Z,3.20
2019-02-25T04:10:44.076Z,3.60
2019-02-25T04:13:13.726Z,3.37
2019-02-25T04:15:44.487Z,3.37
2019-02-25T04:18:14.198Z,3.33
2019-02-25T04:20:43.819Z,3.50
2019-02-25T04:23:13.481Z,3.58
2019-02-25T04:25:43.101Z,3.62
2019-02-25T04:28:12.800Z,3.50
2019-02-25T04:30:42.447Z,3.87
2019-02-25T04:33:12.070Z,3.40
2019-02-25T04:35:41.701Z,3.52
2019-02-25T04:38:11.321Z,3.90
2019-02-25T04:40:40.964Z,3.05
2019-02-25T04:43:10.576Z,3.42
2019-02-25T04:45:40.216Z,3.10
2019-02-25T04:48:09.905Z,3.15
2019-02-25T04:50:39.565Z,3.30
2019-02-25T04:53:09.172Z,2.90
2019-02-25T04:55:38.787Z,3.08
2019-02-25T04:58:08.434Z,3.20
2019-02-25T05:00:38.051Z,3.25
2019-02-25T05:03:07.695Z,2.90
2019-02-25T05:05:37.337Z,3.80
2019-02-25T05:08:06.982Z,3.10
2019-02-25T05:10:36.679Z,3.65
2019-02-25T05:13:07.790Z,3.20
2019-02-25T05:15:37.576Z,3.20
2019-02-25T05:18:07.222Z,3.27
2019-02-25T05:20:36.839Z,3.17
2019-02-25T05:23:06.493Z,3.42
2019-02-25T05:25:36.106Z,3.60
2019-02-25T05:28:05.771Z,3.72
2019-02-25T05:30:35.454Z,4.17
2019-02-25T05:33:05.072Z,4.15
2019-02-25T05:35:34.736Z,3.50
2019-02-25T05:38:04.348Z,3.72
2019-02-25T05:40:34.047Z,3.00
2019-02-25T05:43:03.672Z,2.67
2019-02-25T05:45:33.381Z,3.20
2019-02-25T05:48:02.995Z,2.85
2019-02-25T05:50:32.637Z,3.30
2019-02-25T05:53:02.288Z,3.60
2019-02-25T05:55:31.940Z,3.22
2019-02-25T05:58:01.559Z,3.37
2019-02-25T06:00:35.699Z,3.87
2019-02-25T06:03:05.617Z,3.52
2019-02-25T06:05:35.280Z,4.10
2019-02-25T06:08:04.909Z,3.67
2019-02-25T06:10:34.526Z,3.37
2019-02-25T06:13:04.185Z,3.85
2019-02-25T06:15:33.800Z,3.20
2019-02-25T06:18:03.447Z,3.55
2019-02-25T06:20:33.065Z,3.55
2019-02-25T06:23:02.702Z,3.65
2019-02-25T06:25:32.317Z,7.25
2019-02-25T06:28:01.965Z,33.55
2019-02-25T06:30:31.595Z,14.38
2019-02-25T06:33:01.267Z,13.28
2019-02-25T06:35:30.923Z,6.55
2019-02-25T06:38:00.580Z,3.55
2019-02-25T06:40:30.224Z,3.60
2019-02-25T06:42:59.845Z,17.30
2019-02-25T06:45:36.113Z,17.23
2019-02-25T06:48:05.938Z,8.50
2019-02-25T06:50:35.585Z,5.53
2019-02-25T06:53:05.207Z,4.55
2019-02-25T06:55:34.845Z,3.85
2019-02-25T06:58:04.460Z,4.60
2019-02-25T07:00:34.105Z,4.10
2019-02-25T07:03:03.716Z,4.20
2019-02-25T07:05:43.742Z,3.67
2019-02-25T07:08:15.001Z,4.45
2019-02-25T07:11:02.580Z,4.08
2019-02-25T07:13:33.838Z,5.00
2019-02-25T07:16:07.784Z,5.33
2019-02-25T07:18:54.118Z,5.70
2019-02-25T07:21:28.483Z,4.60
2019-02-25T07:23:59.744Z,4.58
2019-02-25T07:26:47.306Z,4.40
2019-02-25T07:29:19.443Z,4.20
2019-02-25T07:31:53.925Z,4.15
2019-02-25T07:34:41.647Z,4.22
2019-02-25T07:37:18.885Z,4.42
2019-02-25T07:39:52.981Z,3.98
2019-02-25T07:45:02.867Z,3.80
2019-02-25T07:47:50.387Z,4.30
2019-02-25T07:50:21.654Z,4.08
2019-02-25T07:53:02.191Z,3.75
2019-02-25T07:55:45.454Z,4.30
2019-02-25T07:58:14.913Z,4.78
2019-02-25T08:00:49.138Z,4.33
2019-02-25T08:06:02.677Z,4.05
2019-02-25T08:08:44.413Z,4.20
2019-02-25T08:11:18.384Z,3.92
2019-02-25T08:14:01.536Z,4.58
2019-02-25T08:16:32.807Z,4.00
2019-02-25T08:19:05.224Z,4.87
2019-02-25T08:21:52.462Z,4.33
2019-02-25T08:24:30.343Z,4.20
2019-02-25T08:27:00.359Z,3.80
2019-02-25T08:29:34.346Z,4.37
2019-02-25T08:32:17.196Z,4.17
2019-02-25T08:34:52.475Z,4.60
2019-02-25T08:37:40.225Z,4.03
2019-02-25T08:40:44.221Z,4.58
2019-02-25T08:43:24.377Z,4.03
2019-02-25T08:45:58.090Z,4.90
2019-02-25T08:48:29.347Z,4.12
2019-02-25T08:50:59.009Z,3.70
2019-02-25T08:53:29.912Z,4.03
2019-02-25T08:55:59.678Z,4.67
2019-02-25T08:58:29.433Z,4.30
2019-02-25T09:00:59.057Z,4.70
2019-02-25T09:03:28.691Z,4.50
2019-02-25T09:05:58.319Z,4.33
2019-02-25T09:08:27.958Z,4.75
2019-02-25T09:10:57.644Z,4.53
2019-02-25T09:13:27.297Z,4.00
2019-02-25T09:15:56.918Z,4.10
2019-02-25T09:18:26.560Z,3.98
2019-02-25T09:20:56.185Z,4.95
2019-02-25T09:23:25.846Z,3.98
2019-02-25T09:25:55.459Z,4.35
2019-02-25T09:28:25.077Z,4.58
2019-02-25T09:30:54.716Z,4.35
2019-02-25T09:33:24.333Z,3.90
2019-02-25T09:35:53.978Z,4.60
2019-02-25T09:38:23.756Z,3.45
2019-02-25T09:40:53.418Z,3.62
2019-02-25T09:43:24.576Z,4.10
2019-02-25T09:45:54.216Z,4.50
2019-02-25T09:48:23.835Z,4.35
2019-02-25T09:50:53.560Z,4.00
2019-02-25T09:53:23.184Z,4.15
2019-02-25T09:55:52.806Z,4.40
2019-02-25T09:58:22.455Z,4.47
2019-02-25T10:00:52.148Z,4.72
2019-02-25T10:03:21.788Z,4.17
2019-02-25T10:05:51.410Z,3.85
2019-02-25T10:08:21.054Z,3.70
2019-02-25T10:10:50.670Z,3.95
2019-02-25T10:13:20.387Z,3.90
2019-02-25T10:15:50.644Z,3.98
2019-02-25T10:18:20.333Z,3.77
2019-02-25T10:20:49.971Z,4.25
2019-02-25T10:23:19.582Z,3.85
2019-02-25T10:25:49.231Z,3.80
2019-02-25T10:28:18.849Z,3.80
2019-02-25T10:30:52.786Z,3.90
2019-02-25T10:33:19.838Z,3.87
2019-02-25T10:35:49.474Z,3.30
2019-02-25T10:38:21.136Z,3.20
2019-02-25T10:40:52.135Z,3.37
2019-02-25T10:43:22.063Z,4.08
2019-02-25T10:45:51.702Z,3.75
2019-02-25T10:48:22.064Z,3.80
2019-02-25T10:50:56.113Z,3.80
2019-02-25T10:53:24.048Z,3.58
2019-02-25T10:56:10.265Z,3.52
2019-02-25T10:58:39.903Z,3.35
2019-02-25T11:01:13.371Z,3.77
2019-02-25T11:03:40.962Z,3.45
2019-02-25T11:06:10.578Z,3.10
2019-02-25T11:08:43.568Z,3.35
2019-02-25T11:11:18.851Z,2.80
2019-02-25T11:13:48.942Z,2.50
2019-02-25T11:16:20.389Z,3.47
2019-02-25T11:18:52.253Z,2.52
2019-02-25T11:21:21.541Z,2.25
2019-02-25T11:23:53.324Z,2.12
2019-02-25T11:26:23.779Z,2.30
2019-02-25T11:28:54.043Z,2.17
2019-02-25T11:31:26.318Z,2.25
2019-02-25T11:33:56.456Z,2.60
2019-02-25T11:36:26.425Z,2.60
2019-02-25T11:38:57.838Z,2.87
2019-02-25T11:41:27.426Z,2.60
2019-02-25T11:43:57.054Z,2.58
2019-02-25T11:46:26.842Z,2.50
2019-02-25T11:48:56.467Z,2.55
2019-02-25T11:51:27.287Z,2.08
2019-02-25T11:53:59.393Z,2.27
2019-02-25T11:56:28.560Z,2.58
2019-02-25T11:58:58.210Z,1.80
2019-02-25T12:01:27.836Z,2.20
2019-02-25T12:03:57.559Z,1.55
2019-02-25T12:06:27.189Z,2.00
2019-02-25T12:08:56.838Z,2.05
2019-02-25T12:11:26.471Z,1.90
2019-02-25T12:13:56.117Z,2.12
2019-02-25T12:16:25.768Z,2.02
2019-02-25T12:18:55.420Z,2.02
2019-02-25T12:21:25.049Z,2.27
2019-02-25T12:23:54.884Z,1.87
2019-02-25T12:26:24.509Z,1.87
2019-02-25T12:28:54.137Z,1.55
2019-02-25T12:31:23.794Z,1.90
2019-02-25T12:33:53.421Z,1.65
2019-02-25T12:36:23.072Z,2.02
2019-02-25T12:38:52.698Z,2.05
2019-02-25T12:41:22.416Z,1.72
2019-02-25T12:43:52.054Z,1.60
2019-02-25T12:46:21.722Z,1.42
2019-02-25T12:48:51.361Z,1.67
2019-02-25T12:51:21.080Z,1.57
2019-02-25T12:53:50.747Z,1.50
2019-02-25T12:56:20.463Z,1.55
2019-02-25T12:58:50.086Z,1.92
2019-02-25T13:01:19.739Z,1.47
2019-02-25T13:03:49.363Z,1.92
2019-02-25T13:06:19.032Z,1.50
2019-02-25T13:08:48.650Z,1.47
2019-02-25T13:11:18.343Z,1.40
2019-02-25T13:13:47.990Z,1.65
2019-02-25T13:16:17.691Z,1.70
2019-02-25T13:18:47.338Z,1.50
2019-02-25T13:21:16.969Z,1.55
2019-02-25T13:23:46.616Z,1.80
2019-02-25T13:26:16.238Z,2.02
2019-02-25T13:28:45.886Z,1.35
2019-02-25T13:31:15.517Z,1.70
2019-02-25T13:33:45.169Z,1.62
2019-02-25T13:36:14.794Z,1.80
2019-02-25T13:38:44.440Z,1.62
2019-02-25T13:41:14.063Z,1.55
2019-02-25T13:43:43.809Z,1.72
2019-02-25T13:46:13.517Z,2.02
2019-02-25T13:48:43.420Z,1.80
2019-02-25T13:51:13.070Z,1.87
2019-02-25T13:53:42.698Z,1.82
2019-02-25T13:56:12.348Z,1.50
2019-02-25T13:58:41.974Z,1.77
2019-02-25T14:01:14.268Z,1.85
2019-02-25T14:03:43.975Z,1.55
2019-02-25T14:06:13.698Z,2.17
2019-02-25T14:08:43.323Z,1.80
2019-02-25T14:11:13.050Z,1.87
2019-02-25T14:13:42.670Z,1.72
2019-02-25T14:16:12.394Z,1.60
2019-02-25T14:18:42.165Z,1.60
2019-02-25T14:21:12.181Z,1.67
2019-02-25T14:23:41.876Z,1.90
2019-02-25T14:26:11.548Z,1.80
2019-02-25T14:28:41.411Z,1.45
2019-02-25T14:31:11.110Z,1.40
2019-02-25T14:33:41.004Z,1.75
2019-02-25T14:36:10.888Z,1.65
2019-02-25T14:38:40.702Z,1.60
2019-02-25T14:41:11.694Z,1.60
2019-02-25T14:43:47.128Z,2.15
2019-02-25T14:46:14.439Z,1.20
2019-02-25T14:48:44.753Z,1.62
2019-02-25T14:51:14.785Z,1.07
2019-02-25T14:53:45.169Z,1.10
2019-02-25T14:56:15.850Z,1.10
2019-02-25T14:58:47.579Z,1.25
2019-02-25T15:01:18.057Z,1.00
2019-02-25T15:03:48.297Z,1.10
2019-02-25T15:06:17.991Z,0.70
2019-02-25T15:08:47.637Z,0.80
2019-02-25T15:11:17.269Z,1.20
2019-02-25T15:13:46.928Z,1.82
2019-02-25T15:16:16.559Z,1.30
2019-02-25T15:18:46.256Z,0.88
2019-02-25T15:21:16.103Z,0.50
2019-02-25T15:23:45.817Z,1.77
2019-02-25T15:26:17.265Z,1.10
2019-02-25T15:28:47.067Z,1.35
2019-02-25T15:31:16.722Z,4.65
2019-02-25T15:33:48.111Z,3.52
2019-02-25T15:36:20.294Z,1.05
2019-02-25T15:38:49.126Z,0.78
2019-02-25T15:41:18.777Z,1.20
2019-02-25T15:43:48.538Z,0.90
2019-02-25T15:46:19.632Z,1.07
2019-02-25T15:48:49.916Z,1.00
2019-02-25T15:51:19.665Z,0.80
2019-02-25T15:53:51.366Z,0.80
2019-02-25T15:56:20.708Z,1.27
2019-02-25T15:58:51.199Z,1.35
2019-02-25T16:01:21.055Z,1.92
2019-02-25T16:03:50.781Z,1.42
2019-02-25T16:06:20.759Z,0.90
2019-02-25T16:08:52.128Z,0.88
2019-02-25T16:11:25.697Z,1.50
2019-02-25T16:13:55.693Z,1.40
2019-02-25T16:16:26.013Z,1.67
2019-02-25T16:18:56.085Z,4.08
2019-02-25T16:21:26.752Z,3.20
2019-02-25T16:23:59.329Z,2.05
2019-02-25T16:26:28.583Z,1.55
2019-02-25T16:28:59.582Z,1.37
2019-02-25T16:31:30.980Z,1.40
2019-02-25T16:34:01.107Z,0.93
2019-02-25T16:36:32.645Z,1.30
2019-02-25T16:39:05.423Z,1.25
2019-02-25T16:41:34.704Z,0.82
2019-02-25T16:44:06.663Z,0.90
2019-02-25T16:46:38.665Z,0.90
2019-02-25T16:49:07.624Z,0.98
2019-02-25T16:51:37.706Z,1.27
2019-02-25T16:54:10.984Z,0.88
2019-02-25T16:56:39.074Z,1.25
2019-02-25T16:59:11.143Z,0.98
2019-02-25T17:01:41.572Z,1.02
2019-02-25T17:04:12.172Z,1.50
2019-02-25T17:06:42.859Z,1.25
2019-02-25T17:09:20.441Z,1.67
2019-02-25T17:11:50.673Z,1.60
2019-02-25T17:14:21.691Z,1.47
2019-02-25T17:16:51.640Z,1.67
2019-02-25T17:19:22.110Z,1.45
2019-02-25T17:21:52.151Z,1.62
2019-02-25T17:24:24.118Z,1.92
2019-02-25T17:26:53.223Z,3.40
2019-02-25T17:29:24.531Z,4.95
2019-02-25T17:31:54.786Z,25.27
2019-02-25T17:34:25.042Z,36.25
2019-02-25T17:36:55.089Z,10.23
2019-02-25T17:39:24.743Z,6.37
2019-02-25T17:41:54.436Z,3.20
2019-02-25T17:44:27.865Z,3.25
2019-02-25T17:46:57.915Z,2.72
2019-02-25T17:49:26.870Z,1.98
2019-02-25T17:51:58.270Z,1.87
2019-02-25T17:54:29.517Z,2.20
2019-02-25T17:57:00.236Z,7.25
2019-02-25T17:59:31.483Z,4.45
2019-02-25T18:02:02.321Z,3.80
2019-02-25T18:04:34.573Z,3.20
2019-02-25T18:07:04.362Z,2.80
2019-02-25T18:09:35.777Z,2.90
2019-02-25T18:12:08.140Z,2.50
2019-02-25T18:14:38.936Z,2.33
2019-02-25T18:17:10.321Z,2.40
2019-02-25T18:19:41.802Z,2.55
2019-02-25T18:22:13.754Z,2.42
2019-02-25T18:24:44.019Z,3.30
2019-02-25T18:27:15.826Z,2.67
2019-02-25T18:29:46.246Z,2.87
2019-02-25T18:32:16.964Z,3.67
2019-02-25T18:34:46.951Z,57.88
2019-02-25T18:37:17.675Z,43.87
2019-02-25T18:39:48.437Z,24.90
2019-02-25T18:42:20.333Z,6.47
2019-02-25T18:44:51.359Z,4.92
2019-02-25T18:47:23.455Z,3.30
2019-02-25T18:49:54.374Z,3.02
2019-02-25T18:52:27.163Z,2.50
2019-02-25T18:54:56.317Z,2.60
2019-02-25T18:57:27.406Z,2.52
2019-02-25T18:59:59.357Z,3.47
2019-02-25T19:02:30.048Z,3.20
2019-02-25T19:05:02.187Z,3.20
2019-02-25T19:07:33.694Z,3.50
2019-02-25T19:10:03.519Z,2.98
2019-02-25T19:12:34.475Z,3.25
2019-02-25T19:15:06.718Z,2.98
2019-02-25T19:17:36.398Z,3.00
2019-02-25T19:20:09.930Z,3.33
2019-02-25T19:22:41.800Z,3.10
2019-02-25T19:25:15.778Z,3.40
2019-02-25T19:27:45.066Z,3.40
2019-02-25T19:30:19.763Z,3.98
2019-02-25T19:32:49.695Z,2.90
2019-02-25T19:35:21.866Z,3.00
2019-02-25T19:37:50.923Z,2.92
2019-02-25T19:40:24.546Z,3.30
2019-02-25T19:42:56.829Z,3.12
2019-02-25T19:45:26.497Z,3.47
2019-02-25T19:47:58.342Z,3.22
2019-02-25T19:50:28.193Z,3.45
2019-02-25T19:53:02.497Z,4.40
2019-02-25T19:55:30.480Z,3.90
2019-02-25T19:58:00.541Z,4.20
2019-02-25T20:00:33.080Z,4.12
2019-02-25T20:03:05.982Z,4.83
2019-02-25T20:05:38.545Z,4.47
2019-02-25T20:08:05.713Z,4.40
2019-02-25T20:10:35.704Z,3.55
2019-02-25T20:13:08.651Z,3.60
2019-02-25T20:15:39.957Z,3.15
2019-02-25T20:18:09.505Z,3.70
2019-02-25T20:20:41.704Z,3.35
2019-02-25T20:23:12.378Z,3.20
2019-02-25T20:25:44.735Z,3.60
2019-02-25T20:28:13.505Z,7.00
2019-02-25T20:30:44.655Z,8.33
2019-02-25T20:33:14.646Z,10.43
2019-02-25T20:35:48.996Z,11.55
2019-02-25T20:38:15.646Z,10.78
2019-02-25T20:40:47.146Z,8.80
2019-02-25T20:43:19.303Z,6.20
2019-02-25T20:45:50.283Z,5.62
2019-02-25T20:48:19.670Z,6.45
2019-02-25T20:50:49.292Z,7.08
2019-02-25T20:53:18.940Z,5.80
2019-02-25T20:55:50.804Z,5.92
2019-02-25T20:58:20.895Z,6.00
2019-02-25T21:00:51.656Z,5.75
2019-02-25T21:03:23.081Z,5.05
2019-02-25T21:05:52.740Z,4.58
2019-02-25T21:08:23.499Z,4.05
2019-02-25T21:10:53.280Z,3.58
2019-02-25T21:13:25.967Z,3.20
2019-02-25T21:15:54.265Z,4.25
2019-02-25T21:18:24.587Z,3.58
2019-02-25T21:20:55.259Z,3.80
2019-02-25T21:23:24.870Z,4.65
2019-02-25T21:25:57.473Z,5.60
2019-02-25T21:28:29.047Z,5.10
2019-02-25T21:30:57.232Z,4.40
2019-02-25T21:33:28.302Z,3.80
2019-02-25T21:35:58.221Z,3.83
2019-02-25T21:38:28.359Z,4.10
2019-02-25T21:40:59.227Z,3.80
2019-02-25T21:43:29.141Z,3.98
2019-02-25T21:46:01.451Z,3.90
2019-02-25T21:48:32.476Z,3.83
2019-02-25T21:51:02.955Z,3.70
2019-02-25T21:53:33.015Z,4.00
2019-02-25T21:56:04.817Z,4.65
2019-02-25T21:58:33.993Z,4.83
2019-02-25T22:01:03.613Z,4.67
2019-02-25T22:03:37.085Z,4.55
2019-02-25T22:06:04.925Z,3.85
2019-02-25T22:08:36.127Z,3.70
2019-02-25T22:11:12.555Z,3.72
2019-02-25T22:13:37.492Z,3.95
2019-02-25T22:16:08.059Z,3.72
2019-02-25T22:18:37.831Z,3.60
2019-02-25T22:21:09.444Z,4.25
2019-02-25T22:23:38.794Z,4.78
2019-02-25T22:26:08.511Z,4.92
2019-02-25T22:28:39.382Z,4.95
2019-02-25T22:31:10.798Z,4.25
2019-02-25T22:33:40.670Z,3.95
2019-02-25T22:36:10.306Z,3.62
2019-02-25T22:38:39.927Z,4.12
2019-02-25T22:41:09.566Z,4.28
2019-02-25T22:43:41.346Z,4.37
2019-02-25T22:46:11.700Z,4.30
2019-02-25T22:48:43.287Z,4.50
2019-02-25T22:51:12.803Z,4.40
2019-02-25T22:53:42.424Z,4.60
2019-02-25T22:56:13.560Z,3.95
2019-02-25T22:58:43.406Z,4.10
2019-02-25T23:01:17.038Z,3.72
2019-02-25T23:03:47.382Z,4.47
2019-02-25T23:06:18.449Z,4.25
2019-02-25T23:08:48.748Z,4.03
2019-02-25T23:11:21.489Z,4.78
2019-02-25T23:13:52.429Z,4.25
2019-02-25T23:16:24.870Z,4.50
2019-02-25T23:18:53.524Z,4.15
2019-02-25T23:21:24.212Z,3.90
2019-02-25T23:23:55.842Z,4.35
2019-02-25T23:26:25.861Z,4.58
2019-02-25T23:28:57.575Z,4.20
2019-02-25T23:31:29.741Z,4.10
2019-02-25T23:33:58.212Z,4.45
2019-02-25T23:36:27.830Z,4.47
2019-02-25T23:38:59.431Z,4.20
2019-02-25T23:41:31.960Z,4.20
2019-02-25T23:44:00.162Z,4.47
2019-02-25T23:46:32.008Z,4.22
2019-02-25T23:49:01.148Z,4.60
2019-02-25T23:51:30.792Z,4.50
2019-02-25T23:54:00.409Z,4.72
2019-02-25T23:56:31.645Z,4.50
2019-02-25T23:59:01.462Z,4.15
